createdAt,value
2019-05-25T00:00:08.994Z,91.40
2019-05-25T00:02:45.121Z,91.50
2019-05-25T00:05:21.337Z,91.50
2019-05-25T00:07:57.455Z,91.40
2019-05-25T00:10:33.597Z,91.10
2019-05-25T00:13:09.812Z,91.40
2019-05-25T00:15:45.963Z,91.20
2019-05-25T00:18:22.149Z,92.00
2019-05-25T00:20:58.398Z,91.20
2019-05-25T00:23:34.626Z,91.50
2019-05-25T00:26:10.890Z,91.10
2019-05-25T00:28:47.126Z,91.30
2019-05-25T00:31:23.452Z,91.30
2019-05-25T00:33:59.589Z,91.70
2019-05-25T00:36:35.778Z,92.10
2019-05-25T00:39:12.005Z,92.40
2019-05-25T00:41:48.323Z,92.60
2019-05-25T00:44:24.547Z,92.80
2019-05-25T00:47:00.724Z,93.00
2019-05-25T00:49:36.937Z,93.50
2019-05-25T00:52:13.119Z,93.30
2019-05-25T00:54:49.264Z,93.20
2019-05-25T00:57:25.539Z,93.10
2019-05-25T01:00:01.707Z,93.10
2019-05-25T01:02:39.884Z,93.50
2019-05-25T01:05:16.178Z,93.70
2019-05-25T01:07:52.395Z,93.80
2019-05-25T01:10:28.665Z,94.30
2019-05-25T01:13:05.021Z,94.60
2019-05-25T01:15:41.250Z,95.00
2019-05-25T01:18:17.436Z,95.00
2019-05-25T01:20:53.577Z,95.30
2019-05-25T01:23:29.761Z,95.70
2019-05-25T01:26:05.983Z,95.60
2019-05-25T01:28:42.169Z,94.40
2019-05-25T01:31:18.404Z,94.90
2019-05-25T01:33:54.580Z,94.60
2019-05-25T01:36:30.762Z,95.10
2019-05-25T01:39:07.583Z,95.50
2019-05-25T01:41:43.841Z,96.60
2019-05-25T01:44:20.581Z,96.40
2019-05-25T01:46:56.749Z,96.00
2019-05-25T01:49:32.978Z,95.50
2019-05-25T01:52:09.162Z,95.60
2019-05-25T01:54:58.933Z,95.80
2019-05-25T01:57:23.189Z,96.00
2019-05-25T01:59:59.362Z,95.70
2019-05-25T02:02:35.512Z,95.60
2019-05-25T02:05:11.712Z,96.20
2019-05-25T02:07:47.929Z,96.00
2019-05-25T02:10:24.109Z,95.50
2019-05-25T02:13:00.616Z,95.30
2019-05-25T02:15:37.006Z,95.50
2019-05-25T02:18:13.186Z,95.40
2019-05-25T02:20:49.295Z,95.80
2019-05-25T02:23:25.549Z,96.30
2019-05-25T02:26:01.765Z,97.00
2019-05-25T02:28:38.023Z,97.10
2019-05-25T02:31:14.173Z,97.20
2019-05-25T02:33:50.354Z,97.20
2019-05-25T02:36:26.614Z,97.20
2019-05-25T02:39:04.431Z,97.00
2019-05-25T02:41:40.604Z,96.40
2019-05-25T02:44:16.787Z,96.50
2019-05-25T02:46:53.001Z,96.40
2019-05-25T02:49:29.244Z,96.50
2019-05-25T02:52:05.411Z,97.10
2019-05-25T02:54:41.588Z,96.80
2019-05-25T02:57:17.827Z,96.90
2019-05-25T02:59:54.075Z,97.00
2019-05-25T03:02:30.289Z,97.10
2019-05-25T03:05:11.946Z,97.10
2019-05-25T03:07:49.276Z,96.90
2019-05-25T03:10:27.617Z,97.10
2019-05-25T03:13:04.961Z,96.90
2019-05-25T03:15:41.154Z,97.20
2019-05-25T03:18:17.402Z,97.20
2019-05-25T03:20:53.550Z,97.20
2019-05-25T03:23:29.821Z,97.20
2019-05-25T03:26:06.020Z,97.20
2019-05-25T03:28:42.198Z,97.20
2019-05-25T03:31:18.419Z,97.20
2019-05-25T03:33:54.667Z,97.20
2019-05-25T03:36:30.878Z,97.20
2019-05-25T03:39:08.141Z,97.20
2019-05-25T03:41:44.271Z,97.20
2019-05-25T03:44:20.456Z,97.20
2019-05-25T03:46:56.598Z,97.20
2019-05-25T03:49:32.853Z,97.20
2019-05-25T03:52:09.076Z,97.20
2019-05-25T03:54:45.315Z,97.20
2019-05-25T03:57:21.492Z,97.20
2019-05-25T03:59:57.680Z,97.20
2019-05-25T04:02:33.837Z,97.20
2019-05-25T04:05:10.107Z,97.20
2019-05-25T04:07:46.279Z,97.20
2019-05-25T04:10:22.348Z,97.20
2019-05-25T04:12:58.595Z,97.20
2019-05-25T04:15:34.769Z,97.20
2019-05-25T04:18:10.915Z,97.20
2019-05-25T04:20:47.167Z,97.20
2019-05-25T04:23:23.385Z,97.20
2019-05-25T04:25:59.572Z,97.20
2019-05-25T04:28:35.792Z,97.20
2019-05-25T04:31:12.033Z,97.20
2019-05-25T04:33:48.281Z,97.20
2019-05-25T04:36:26.152Z,97.20
2019-05-25T04:39:02.370Z,97.20
2019-05-25T04:41:38.564Z,97.20
2019-05-25T04:44:14.844Z,97.20
2019-05-25T04:46:51.029Z,97.20
2019-05-25T04:49:27.240Z,97.20
2019-05-25T04:52:03.484Z,97.20
2019-05-25T04:54:39.771Z,97.20
2019-05-25T04:57:35.269Z,97.20
2019-05-25T05:00:11.810Z,97.20
2019-05-25T05:02:48.026Z,97.20
2019-05-25T05:05:24.274Z,97.20
2019-05-25T05:08:00.377Z,97.20
2019-05-25T05:10:36.560Z,97.20
2019-05-25T05:18:48.119Z,95.90
2019-05-25T05:21:24.310Z,95.60
2019-05-25T05:24:00.458Z,95.00
2019-05-25T05:26:36.730Z,95.00
2019-05-25T05:29:12.976Z,94.40
2019-05-25T05:31:49.205Z,94.20
2019-05-25T05:34:25.467Z,93.90
2019-05-25T05:37:02.828Z,93.40
2019-05-25T05:39:40.095Z,92.90
2019-05-25T05:42:18.957Z,92.00
2019-05-25T05:44:57.479Z,90.80
2019-05-25T05:47:35.611Z,90.70
2019-05-25T05:50:11.881Z,90.70
2019-05-25T05:52:51.159Z,91.20
2019-05-25T05:55:31.674Z,89.60
2019-05-25T05:58:07.880Z,88.20
2019-05-25T06:00:43.911Z,88.20
2019-05-25T06:03:20.399Z,88.50
2019-05-25T06:05:56.571Z,88.00
2019-05-25T06:08:32.792Z,86.30
2019-05-25T06:11:08.892Z,84.40
2019-05-25T06:13:45.045Z,83.80
2019-05-25T06:16:21.468Z,85.70
2019-05-25T06:18:57.553Z,86.60
2019-05-25T06:21:33.721Z,86.80
2019-05-25T06:24:09.872Z,88.20
2019-05-25T06:26:46.193Z,89.40
2019-05-25T06:29:22.401Z,89.60
2019-05-25T06:31:58.579Z,90.20
2019-05-25T06:34:34.811Z,90.60
2019-05-25T06:37:11.043Z,90.40
2019-05-25T06:39:47.261Z,91.30
2019-05-25T06:42:23.511Z,93.30
2019-05-25T06:44:59.668Z,93.80
2019-05-25T06:47:35.860Z,92.80
2019-05-25T06:50:12.122Z,92.60
2019-05-25T06:52:48.368Z,92.70
2019-05-25T06:55:24.586Z,93.20
2019-05-25T06:58:00.875Z,93.10
2019-05-25T07:00:37.077Z,93.10
2019-05-25T07:03:13.246Z,93.20
2019-05-25T07:05:49.466Z,93.60
2019-05-25T07:08:25.652Z,93.50
2019-05-25T07:11:01.876Z,93.50
2019-05-25T07:13:37.917Z,92.70
2019-05-25T07:16:14.066Z,92.70
2019-05-25T07:18:50.312Z,92.50
2019-05-25T07:21:26.427Z,92.40
2019-05-25T07:24:02.665Z,91.70
2019-05-25T07:26:38.892Z,91.10
2019-05-25T07:29:15.163Z,90.80
2019-05-25T07:31:51.382Z,89.70
2019-05-25T07:34:27.547Z,89.80
2019-05-25T07:37:03.704Z,90.10
2019-05-25T07:39:39.885Z,90.80
2019-05-25T07:42:16.053Z,90.10
2019-05-25T07:44:52.240Z,89.30
2019-05-25T07:47:28.372Z,89.40
2019-05-25T07:50:10.077Z,88.40
2019-05-25T07:52:46.271Z,88.10
2019-05-25T07:55:22.510Z,88.70
2019-05-25T07:58:15.202Z,89.20
2019-05-25T08:00:36.525Z,89.10
2019-05-25T08:03:12.662Z,88.60
2019-05-25T08:05:48.843Z,88.00
2019-05-25T08:08:25.070Z,89.60
2019-05-25T08:11:01.319Z,89.40
2019-05-25T08:13:37.463Z,86.80
2019-05-25T08:16:13.711Z,85.30
2019-05-25T08:18:49.873Z,84.60
2019-05-25T08:21:26.120Z,85.30
2019-05-25T08:24:02.373Z,85.20
2019-05-25T08:26:38.584Z,84.10
2019-05-25T08:29:14.779Z,82.50
2019-05-25T08:31:51.034Z,82.50
2019-05-25T08:34:27.302Z,80.90
2019-05-25T08:37:03.569Z,81.70
2019-05-25T08:39:39.821Z,79.00
2019-05-25T08:42:16.081Z,80.00
2019-05-25T08:44:52.301Z,76.70
2019-05-25T08:47:28.484Z,74.40
2019-05-25T08:50:06.303Z,74.20
2019-05-25T08:52:42.556Z,77.60
2019-05-25T08:55:18.819Z,76.50
2019-05-25T08:57:54.976Z,75.60
2019-05-25T09:00:31.270Z,75.90
2019-05-25T09:03:07.911Z,74.30
2019-05-25T09:05:44.164Z,74.60
2019-05-25T09:08:20.416Z,72.90
2019-05-25T09:10:56.651Z,75.70
2019-05-25T09:13:32.894Z,73.60
2019-05-25T09:16:09.153Z,72.20
2019-05-25T09:18:45.276Z,73.20
2019-05-25T09:21:21.465Z,74.80
2019-05-25T09:23:57.660Z,73.50
2019-05-25T09:26:33.919Z,73.80
2019-05-25T09:29:10.831Z,72.40
2019-05-25T09:31:47.011Z,73.00
2019-05-25T09:34:23.166Z,74.20
2019-05-25T09:36:59.340Z,74.20
2019-05-25T09:39:35.548Z,72.10
2019-05-25T09:42:11.714Z,71.20
2019-05-25T09:44:47.945Z,72.40
2019-05-25T09:47:24.188Z,72.50
2019-05-25T09:50:00.293Z,73.70
2019-05-25T09:52:36.505Z,72.60
2019-05-25T09:55:13.448Z,72.20
2019-05-25T09:57:49.605Z,73.80
2019-05-25T10:00:25.943Z,73.40
2019-05-25T10:03:02.085Z,74.10
2019-05-25T10:05:38.324Z,74.00
2019-05-25T10:08:14.390Z,73.90
2019-05-25T10:10:50.500Z,72.10
2019-05-25T10:13:26.646Z,71.90
2019-05-25T10:16:02.868Z,71.50
2019-05-25T10:18:39.069Z,70.40
2019-05-25T10:21:15.221Z,71.00
2019-05-25T10:23:51.384Z,70.70
2019-05-25T10:26:27.554Z,70.80
2019-05-25T10:29:03.761Z,70.70
2019-05-25T10:31:40.005Z,71.20
2019-05-25T10:34:16.224Z,72.40
2019-05-25T10:36:52.431Z,70.30
2019-05-25T10:39:28.656Z,74.50
2019-05-25T10:42:05.004Z,69.70
2019-05-25T10:44:41.223Z,69.50
2019-05-25T10:47:17.472Z,68.90
2019-05-25T10:49:53.621Z,69.10
2019-05-25T10:52:29.871Z,71.00
2019-05-25T10:55:08.822Z,70.80
2019-05-25T10:57:45.087Z,70.90
2019-05-25T11:00:21.803Z,70.20
2019-05-25T11:02:58.328Z,71.90
2019-05-25T11:05:34.577Z,72.60
2019-05-25T11:08:10.824Z,75.00
2019-05-25T11:10:47.038Z,73.50
2019-05-25T11:13:23.305Z,73.80
2019-05-25T11:15:59.517Z,74.80
2019-05-25T11:18:35.789Z,74.70
2019-05-25T11:21:11.941Z,73.50
2019-05-25T11:23:48.194Z,74.50
2019-05-25T11:26:24.336Z,73.90
2019-05-25T11:29:00.520Z,74.80
2019-05-25T11:31:36.681Z,76.30
2019-05-25T11:34:12.936Z,77.10
2019-05-25T11:36:49.086Z,76.60
2019-05-25T11:39:25.331Z,75.50
2019-05-25T11:42:01.539Z,75.00
2019-05-25T11:44:37.736Z,73.30
2019-05-25T11:47:13.955Z,73.60
2019-05-25T11:49:50.138Z,72.00
2019-05-25T11:52:26.347Z,71.30
2019-05-25T11:55:02.530Z,71.80
2019-05-25T11:57:38.742Z,70.30
2019-05-25T12:00:24.997Z,71.00
2019-05-25T12:02:55.880Z,70.10
2019-05-25T12:05:32.119Z,69.10
2019-05-25T12:08:08.250Z,69.30
2019-05-25T12:10:44.433Z,69.60
2019-05-25T12:13:20.604Z,70.60
2019-05-25T12:15:56.784Z,69.80
2019-05-25T12:18:32.919Z,70.90
2019-05-25T12:21:09.117Z,70.10
2019-05-25T12:23:45.327Z,72.60
2019-05-25T12:26:21.572Z,74.00
2019-05-25T12:28:57.825Z,72.50
2019-05-25T12:31:34.001Z,72.30
2019-05-25T12:34:10.227Z,70.90
2019-05-25T12:36:46.475Z,71.90
2019-05-25T12:39:26.452Z,73.50
2019-05-25T12:42:00.641Z,74.20
2019-05-25T12:44:36.932Z,73.40
2019-05-25T12:47:13.283Z,72.30
2019-05-25T12:49:51.247Z,74.20
2019-05-25T12:52:27.495Z,73.50
2019-05-25T12:55:04.663Z,72.60
2019-05-25T12:57:40.880Z,72.20
2019-05-25T13:00:17.354Z,71.80
2019-05-25T13:02:53.586Z,72.00
2019-05-25T13:05:34.257Z,72.40
2019-05-25T13:08:07.660Z,70.80
2019-05-25T13:10:43.845Z,70.90
2019-05-25T13:13:20.061Z,71.60
2019-05-25T13:15:56.324Z,73.20
2019-05-25T13:18:32.535Z,72.50
2019-05-25T13:21:08.787Z,71.30
2019-05-25T13:23:44.924Z,72.10
2019-05-25T13:26:21.175Z,70.40
2019-05-25T13:28:57.386Z,73.00
2019-05-25T13:31:33.559Z,71.80
2019-05-25T13:34:09.770Z,70.00
2019-05-25T13:36:46.342Z,71.10
2019-05-25T13:39:22.604Z,70.20
2019-05-25T13:41:58.772Z,70.60
2019-05-25T13:44:35.018Z,71.20
2019-05-25T13:47:11.227Z,71.20
2019-05-25T13:49:47.467Z,69.50
2019-05-25T13:52:23.646Z,71.00
2019-05-25T13:54:59.901Z,69.00
2019-05-25T13:57:36.052Z,68.40
2019-05-25T14:00:13.478Z,69.40
2019-05-25T14:02:49.751Z,69.30
2019-05-25T14:05:26.004Z,70.90
2019-05-25T14:08:02.223Z,70.00
2019-05-25T14:10:38.472Z,71.50
2019-05-25T14:13:14.542Z,70.80
2019-05-25T14:16:05.734Z,70.10
2019-05-25T14:18:28.639Z,71.40
2019-05-25T14:21:05.169Z,70.40
2019-05-25T14:23:41.312Z,70.00
2019-05-25T14:26:17.485Z,71.40
2019-05-25T14:28:53.687Z,71.20
2019-05-25T14:31:44.352Z,70.00
2019-05-25T14:34:07.730Z,70.70
2019-05-25T14:36:44.288Z,70.40
2019-05-25T14:39:20.505Z,71.60
2019-05-25T14:41:56.771Z,70.70
2019-05-25T14:44:33.105Z,72.20
2019-05-25T14:47:09.250Z,70.80
2019-05-25T14:49:45.560Z,73.10
2019-05-25T14:52:21.806Z,74.00
2019-05-25T14:54:58.040Z,72.50
2019-05-25T14:57:34.354Z,72.40
2019-05-25T15:00:12.543Z,72.60
2019-05-25T15:02:48.788Z,74.40
2019-05-25T15:05:24.967Z,72.80
2019-05-25T15:08:01.258Z,73.20
2019-05-25T15:10:37.561Z,72.20
2019-05-25T15:13:13.808Z,73.40
2019-05-25T15:15:50.496Z,73.50
2019-05-25T15:18:26.706Z,72.70
2019-05-25T15:21:04.513Z,74.40
2019-05-25T15:23:40.762Z,75.70
2019-05-25T15:26:16.998Z,73.20
2019-05-25T15:28:53.134Z,74.40
2019-05-25T15:31:29.392Z,74.10
2019-05-25T15:34:05.539Z,73.00
2019-05-25T15:36:41.715Z,73.20
2019-05-25T15:39:17.962Z,73.10
2019-05-25T15:41:54.034Z,72.70
2019-05-25T15:44:30.293Z,73.20
2019-05-25T15:47:06.529Z,74.60
2019-05-25T15:49:42.768Z,73.90
2019-05-25T15:52:19.016Z,74.70
2019-05-25T15:54:55.223Z,75.40
2019-05-25T15:57:31.477Z,74.00
2019-05-25T16:00:17.129Z,74.90
2019-05-25T16:02:53.305Z,74.30
2019-05-25T16:05:29.444Z,74.20
2019-05-25T16:08:05.689Z,74.30
2019-05-25T16:10:41.995Z,75.80
2019-05-25T16:13:18.243Z,75.60
2019-05-25T16:15:54.448Z,76.00
2019-05-25T16:18:30.726Z,76.10
2019-05-25T16:21:06.861Z,76.70
2019-05-25T16:23:43.054Z,76.40
2019-05-25T16:26:19.193Z,76.00
2019-05-25T16:28:55.294Z,76.30
2019-05-25T16:31:31.405Z,76.60
2019-05-25T16:34:07.547Z,77.70
2019-05-25T16:36:43.724Z,75.90
2019-05-25T16:39:20.222Z,77.40
2019-05-25T16:41:56.443Z,77.20
2019-05-25T16:44:32.983Z,77.60
2019-05-25T16:47:09.215Z,77.40
2019-05-25T16:49:45.352Z,77.90
2019-05-25T16:52:21.625Z,77.60
2019-05-25T16:54:58.667Z,78.50
2019-05-25T16:57:34.870Z,77.90
2019-05-25T17:00:11.609Z,78.20
2019-05-25T17:02:47.831Z,77.80
2019-05-25T17:05:23.996Z,77.90
2019-05-25T17:08:00.243Z,78.50
2019-05-25T17:10:36.456Z,77.70
2019-05-25T17:13:12.719Z,78.20
2019-05-25T17:15:48.938Z,78.30
2019-05-25T17:18:25.187Z,77.90
2019-05-25T17:21:01.255Z,78.30
2019-05-25T17:23:37.432Z,78.40
2019-05-25T17:26:13.572Z,78.80
2019-05-25T17:28:49.730Z,78.50
2019-05-25T17:31:25.945Z,78.20
2019-05-25T17:34:02.184Z,78.50
2019-05-25T17:36:38.329Z,78.60
2019-05-25T17:39:14.738Z,78.70
2019-05-25T17:41:51.021Z,78.50
2019-05-25T17:44:27.116Z,78.80
2019-05-25T17:47:03.327Z,79.10
2019-05-25T17:49:39.594Z,79.30
2019-05-25T17:52:15.810Z,78.70
2019-05-25T17:54:52.057Z,78.90
2019-05-25T17:57:28.197Z,79.70
2019-05-25T18:00:06.724Z,79.80
2019-05-25T18:02:43.105Z,79.60
2019-05-25T18:05:19.344Z,79.80
2019-05-25T18:07:55.556Z,80.20
2019-05-25T18:10:31.734Z,79.90
2019-05-25T18:13:07.958Z,80.10
2019-05-25T18:15:44.191Z,80.30
2019-05-25T18:18:20.326Z,80.60
2019-05-25T18:20:56.493Z,80.70
2019-05-25T18:23:32.709Z,81.30
2019-05-25T18:26:08.977Z,81.60
2019-05-25T18:28:45.222Z,81.80
2019-05-25T18:31:21.444Z,82.00
2019-05-25T18:33:57.615Z,82.20
2019-05-25T18:36:33.766Z,82.00
2019-05-25T18:39:10.016Z,81.80
2019-05-25T18:41:46.165Z,82.80
2019-05-25T18:44:24.212Z,82.60
2019-05-25T18:47:00.352Z,83.00
2019-05-25T18:49:36.614Z,83.30
2019-05-25T18:52:12.749Z,83.70
2019-05-25T18:54:49.009Z,84.30
2019-05-25T18:57:25.611Z,84.90
2019-05-25T19:00:01.877Z,85.10
2019-05-25T19:02:38.194Z,85.50
2019-05-25T19:05:14.376Z,85.50
2019-05-25T19:07:50.581Z,86.20
2019-05-25T19:10:26.767Z,86.40
2019-05-25T19:13:02.905Z,86.60
2019-05-25T19:15:39.165Z,86.40
2019-05-25T19:18:15.311Z,86.70
2019-05-25T19:20:51.574Z,87.10
2019-05-25T19:23:27.843Z,87.40
2019-05-25T19:26:04.068Z,87.30
2019-05-25T19:28:40.261Z,86.60
2019-05-25T19:31:16.425Z,87.10
2019-05-25T19:33:52.660Z,87.50
2019-05-25T19:36:28.828Z,87.80
2019-05-25T19:39:07.812Z,88.20
2019-05-25T19:41:44.003Z,88.30
2019-05-25T19:44:20.218Z,88.70
2019-05-25T19:46:56.379Z,88.20
2019-05-25T19:49:32.508Z,88.30
2019-05-25T19:52:08.684Z,89.00
2019-05-25T19:54:45.013Z,89.20
2019-05-25T19:57:21.247Z,90.20
2019-05-25T19:59:57.459Z,90.40
2019-05-25T20:02:33.706Z,90.40
2019-05-25T20:05:16.750Z,90.40
2019-05-25T20:07:48.383Z,91.00
2019-05-25T20:10:24.588Z,90.50
2019-05-25T20:13:00.843Z,91.00
2019-05-25T20:15:37.043Z,91.70
2019-05-25T20:18:13.224Z,91.30
2019-05-25T20:20:49.360Z,92.00
2019-05-25T20:23:25.623Z,92.30
2019-05-25T20:26:01.836Z,92.60
2019-05-25T20:28:38.071Z,92.70
2019-05-25T20:31:14.212Z,92.80
2019-05-25T20:33:50.467Z,93.40
2019-05-25T20:36:26.681Z,94.80
2019-05-25T20:39:02.929Z,94.50
2019-05-25T20:41:39.136Z,93.40
2019-05-25T20:44:15.416Z,95.00
2019-05-25T20:46:51.648Z,95.30
2019-05-25T20:49:27.924Z,95.30
2019-05-25T20:52:04.124Z,94.50
2019-05-25T20:54:40.313Z,94.60
2019-05-25T20:57:16.533Z,95.10
2019-05-25T20:59:52.789Z,95.70
2019-05-25T21:02:29.005Z,95.60
2019-05-25T21:05:08.239Z,95.10
2019-05-25T21:07:44.660Z,95.00
2019-05-25T21:10:40.082Z,94.80
2019-05-25T21:13:16.326Z,95.20
2019-05-25T21:15:52.641Z,95.80
2019-05-25T21:18:28.936Z,96.00
2019-05-25T21:21:05.083Z,96.10
2019-05-25T21:23:41.421Z,96.50
2019-05-25T21:26:17.630Z,96.10
2019-05-25T21:28:53.724Z,95.80
2019-05-25T21:31:29.851Z,96.40
2019-05-25T21:34:06.015Z,96.60
2019-05-25T21:36:43.269Z,95.50
2019-05-25T21:39:19.746Z,95.00
2019-05-25T21:41:55.957Z,95.20
2019-05-25T21:44:32.210Z,95.20
2019-05-25T21:47:08.427Z,94.80
2019-05-25T21:49:44.668Z,94.80
2019-05-25T21:52:20.758Z,94.80
2019-05-25T21:54:56.987Z,94.90
2019-05-25T21:57:33.194Z,96.80
2019-05-25T22:00:12.975Z,95.30
2019-05-25T22:02:49.255Z,95.50
2019-05-25T22:05:25.499Z,96.10
2019-05-25T22:08:01.757Z,96.10
2019-05-25T22:10:37.960Z,96.30
2019-05-25T22:13:26.902Z,96.40
2019-05-25T22:15:51.982Z,96.50
2019-05-25T22:18:28.158Z,96.40
2019-05-25T22:21:04.385Z,97.20
2019-05-25T22:23:40.641Z,96.20
2019-05-25T22:26:16.848Z,96.10
2019-05-25T22:28:52.951Z,95.90
2019-05-25T22:31:29.218Z,95.90
2019-05-25T22:34:05.393Z,96.90
2019-05-25T22:36:41.679Z,97.10
2019-05-25T22:39:17.839Z,96.20
2019-05-25T22:41:53.979Z,96.90
2019-05-25T22:44:30.260Z,97.20
2019-05-25T22:47:06.507Z,97.10
2019-05-25T22:49:42.709Z,96.90
2019-05-25T22:52:18.925Z,96.60
2019-05-25T22:54:55.196Z,96.90
2019-05-25T22:57:31.406Z,97.20
2019-05-25T23:00:09.531Z,97.20
2019-05-25T23:02:45.712Z,97.20
2019-05-25T23:05:21.882Z,97.20
2019-05-25T23:07:58.119Z,97.20
2019-05-25T23:10:34.291Z,97.20
2019-05-25T23:13:10.436Z,97.20
2019-05-25T23:15:46.676Z,97.20
2019-05-25T23:18:22.817Z,97.20
2019-05-25T23:20:59.060Z,97.20
2019-05-25T23:23:35.279Z,97.20
2019-05-25T23:26:11.604Z,97.20
2019-05-25T23:28:47.961Z,97.20
2019-05-25T23:31:24.204Z,97.20
2019-05-25T23:34:00.413Z,97.20
2019-05-25T23:36:36.595Z,97.20
2019-05-25T23:39:12.809Z,97.20
2019-05-25T23:41:49.066Z,97.20
2019-05-25T23:44:25.288Z,97.20
2019-05-25T23:47:01.541Z,97.20
2019-05-25T23:49:37.696Z,97.20
2019-05-25T23:52:13.920Z,97.20
2019-05-25T23:54:50.052Z,97.20
2019-05-25T23:57:26.305Z,97.20
